首页
METAR-TAF:

METAR-TAF

机场 :

Fort St. John, 不列颠哥伦比亚, 加拿大

纬度: 56-14N, 经度: 120-44W, 海拔: 695米

当前天气观测

该预报发布于24分钟前的13:00 UTC
风速5节,风向北转东北
温度 10°C
湿度 62%
气压 1019 hPa
能見度: 48.3公里
多云层高于13000英尺

METAR: CYXJ 221300Z 03005KT 30SM BKN130 10/03 A3008 RMK AC7 SLP199

时间: 06:24 (13:24 UTC)

预报

该预报发布于46分钟前的12:38 UTC
预报有效从22日的 13点(UTC)到 23日的 01点(UTC)
风速3节,风向多变
能見度: 10公里
多云层高于13000英尺
成为
从 22日的 16点(UTC)到 22日的 18点(UTC)
风速8节,风向西转西南
从 22日的 2100点(UTC)
风速10节,风向西
能見度: 10公里
散云层高于6000英尺
多云层高于11000英尺
短暂存在
从 22日的 21点(UTC)到 23日的 01点(UTC)
能見度: 10公里
多云层高于6000英尺
小阵雨

TAF: CYXJ 221238Z 2213/2301 VRB03KT P6SM BKN130 BECMG 2216/2218 24008KT FM222100 28010KT P6SM SCT060 BKN110 TEMPO 2221/2301 P6SM -SHRA BKN060 RMK NXT FCST BY 221900Z

超过4000个机场的气象观测和天气预报(METAR&TAF报告)。

可查询的气象台以黄色和红色小点在地图上表示。

将鼠标移到小点上方,可查看气象台名称。

然后点击查看天气观测和预报。

如需切换地图:点击带黑十字的绿色按钮放大地图;点击带横线的绿色按钮缩小地图;或者点击绿色箭头查看邻近地区的地图。


METAR-TAF: